sensor_id;sensor_type;location;lat;lon;timestamp;P1;durP1;ratioP1;P2;durP2;ratioP2
14294;SDS011;7231;59.370;18.016;2022-12-18T00:00:07;17.03;;;10.73;;
14294;SDS011;7231;59.370;18.016;2022-12-18T00:02:35;18.03;;;9.97;;
14294;SDS011;7231;59.370;18.016;2022-12-18T00:05:04;18.33;;;11.00;;
14294;SDS011;7231;59.370;18.016;2022-12-18T00:07:32;21.10;;;10.37;;
14294;SDS011;7231;59.370;18.016;2022-12-18T00:10:00;17.50;;;11.17;;
14294;SDS011;7231;59.370;18.016;2022-12-18T00:12:28;13.57;;;7.77;;
14294;SDS011;7231;59.370;18.016;2022-12-18T00:14:56;16.90;;;10.80;;
14294;SDS011;7231;59.370;18.016;2022-12-18T00:17:25;21.10;;;12.70;;
14294;SDS011;7231;59.370;18.016;2022-12-18T00:19:53;24.13;;;13.00;;
14294;SDS011;7231;59.370;18.016;2022-12-18T00:22:21;12.87;;;8.77;;
14294;SDS011;7231;59.370;18.016;2022-12-18T00:24:49;17.93;;;11.27;;
14294;SDS011;7231;59.370;18.016;2022-12-18T00:27:17;18.13;;;11.47;;
14294;SDS011;7231;59.370;18.016;2022-12-18T00:29:45;21.60;;;11.10;;
14294;SDS011;7231;59.370;18.016;2022-12-18T00:32:12;20.40;;;11.00;;
14294;SDS011;7231;59.370;18.016;2022-12-18T00:34:42;16.63;;;9.57;;
14294;SDS011;7231;59.370;18.016;2022-12-18T00:37:10;18.40;;;11.77;;
14294;SDS011;7231;59.370;18.016;2022-12-18T00:39:45;18.33;;;11.03;;
14294;SDS011;7231;59.370;18.016;2022-12-18T00:42:15;19.43;;;10.97;;
14294;SDS011;7231;59.370;18.016;2022-12-18T00:45:00;19.23;;;10.07;;
14294;SDS011;7231;59.370;18.016;2022-12-18T00:47:37;20.40;;;10.80;;
14294;SDS011;7231;59.370;18.016;2022-12-18T00:50:07;19.10;;;10.80;;
14294;SDS011;7231;59.370;18.016;2022-12-18T00:52:36;18.37;;;12.47;;
14294;SDS011;7231;59.370;18.016;2022-12-18T00:55:04;12.80;;;9.60;;
14294;SDS011;7231;59.370;18.016;2022-12-18T00:57:33;18.77;;;10.77;;
14294;SDS011;7231;59.370;18.016;2022-12-18T01:00:00;15.43;;;8.90;;
14294;SDS011;7231;59.370;18.016;2022-12-18T01:02:30;17.20;;;10.13;;
14294;SDS011;7231;59.370;18.016;2022-12-18T01:04:58;14.10;;;8.90;;
14294;SDS011;7231;59.370;18.016;2022-12-18T01:07:27;19.27;;;11.00;;
14294;SDS011;7231;59.370;18.016;2022-12-18T01:09:55;17.53;;;11.30;;
14294;SDS011;7231;59.370;18.016;2022-12-18T01:12:23;20.13;;;11.33;;
14294;SDS011;7231;59.370;18.016;2022-12-18T01:14:51;13.20;;;7.13;;
14294;SDS011;7231;59.370;18.016;2022-12-18T01:17:19;16.60;;;9.63;;
14294;SDS011;7231;59.370;18.016;2022-12-18T01:19:47;15.43;;;7.93;;
14294;SDS011;7231;59.370;18.016;2022-12-18T01:22:14;20.17;;;10.93;;
14294;SDS011;7231;59.370;18.016;2022-12-18T01:24:44;18.37;;;11.33;;
14294;SDS011;7231;59.370;18.016;2022-12-18T01:27:12;18.33;;;11.00;;
14294;SDS011;7231;59.370;18.016;2022-12-18T01:29:40;20.60;;;13.50;;
14294;SDS011;7231;59.370;18.016;2022-12-18T01:32:08;19.37;;;12.43;;
14294;SDS011;7231;59.370;18.016;2022-12-18T01:34:36;17.60;;;12.43;;
14294;SDS011;7231;59.370;18.016;2022-12-18T01:37:05;21.17;;;12.23;;
14294;SDS011;7231;59.370;18.016;2022-12-18T01:39:33;20.27;;;11.83;;
14294;SDS011;7231;59.370;18.016;2022-12-18T01:42:03;21.30;;;11.67;;
14294;SDS011;7231;59.370;18.016;2022-12-18T01:44:51;18.20;;;11.43;;
14294;SDS011;7231;59.370;18.016;2022-12-18T01:47:23;20.30;;;12.17;;
14294;SDS011;7231;59.370;18.016;2022-12-18T01:49:55;20.30;;;11.33;;
14294;SDS011;7231;59.370;18.016;2022-12-18T01:52:24;17.00;;;12.00;;
14294;SDS011;7231;59.370;18.016;2022-12-18T01:54:55;19.00;;;12.20;;
14294;SDS011;7231;59.370;18.016;2022-12-18T01:57:25;19.70;;;11.90;;
14294;SDS011;7231;59.370;18.016;2022-12-18T01:59:55;19.87;;;11.77;;
14294;SDS011;7231;59.370;18.016;2022-12-18T02:02:27;15.77;;;10.40;;
14294;SDS011;7231;59.370;18.016;2022-12-18T02:04:59;18.90;;;10.43;;
14294;SDS011;7231;59.370;18.016;2022-12-18T02:07:30;17.33;;;11.13;;
14294;SDS011;7231;59.370;18.016;2022-12-18T02:10:06;18.93;;;11.40;;
14294;SDS011;7231;59.370;18.016;2022-12-18T02:12:43;18.63;;;10.23;;
14294;SDS011;7231;59.370;18.016;2022-12-18T02:15:18;16.50;;;11.00;;
14294;SDS011;7231;59.370;18.016;2022-12-18T02:17:52;17.97;;;9.63;;
14294;SDS011;7231;59.370;18.016;2022-12-18T02:20:24;17.17;;;10.57;;
14294;SDS011;7231;59.370;18.016;2022-12-18T02:23:01;14.60;;;10.10;;
14294;SDS011;7231;59.370;18.016;2022-12-18T02:25:43;15.30;;;9.90;;
14294;SDS011;7231;59.370;18.016;2022-12-18T02:28:34;16.43;;;10.13;;
14294;SDS011;7231;59.370;18.016;2022-12-18T02:31:07;14.33;;;8.83;;
14294;SDS011;7231;59.370;18.016;2022-12-18T02:33:39;14.33;;;9.80;;
14294;SDS011;7231;59.370;18.016;2022-12-18T02:36:09;14.33;;;9.93;;
14294;SDS011;7231;59.370;18.016;2022-12-18T02:38:40;16.03;;;11.23;;
14294;SDS011;7231;59.370;18.016;2022-12-18T02:41:11;18.33;;;10.27;;
14294;SDS011;7231;59.370;18.016;2022-12-18T02:43:45;15.30;;;9.77;;
14294;SDS011;7231;59.370;18.016;2022-12-18T02:46:23;16.00;;;9.97;;
14294;SDS011;7231;59.370;18.016;2022-12-18T02:48:55;18.87;;;10.57;;
14294;SDS011;7231;59.370;18.016;2022-12-18T02:51:44;18.30;;;10.87;;
14294;SDS011;7231;59.370;18.016;2022-12-18T02:54:21;15.20;;;8.77;;
14294;SDS011;7231;59.370;18.016;2022-12-18T02:57:06;18.67;;;10.80;;
14294;SDS011;7231;59.370;18.016;2022-12-18T02:59:44;16.27;;;9.87;;
14294;SDS011;7231;59.370;18.016;2022-12-18T03:02:22;17.80;;;10.77;;
14294;SDS011;7231;59.370;18.016;2022-12-18T03:04:56;14.13;;;9.53;;
14294;SDS011;7231;59.370;18.016;2022-12-18T03:07:33;17.73;;;12.20;;
14294;SDS011;7231;59.370;18.016;2022-12-18T03:10:06;16.03;;;9.40;;
14294;SDS011;7231;59.370;18.016;2022-12-18T03:12:41;14.70;;;9.03;;
14294;SDS011;7231;59.370;18.016;2022-12-18T03:15:14;16.20;;;10.10;;
14294;SDS011;7231;59.370;18.016;2022-12-18T03:17:48;13.53;;;9.60;;
14294;SDS011;7231;59.370;18.016;2022-12-18T03:20:22;10.87;;;7.43;;
14294;SDS011;7231;59.370;18.016;2022-12-18T03:22:53;15.93;;;10.17;;
14294;SDS011;7231;59.370;18.016;2022-12-18T03:25:27;16.03;;;10.73;;
14294;SDS011;7231;59.370;18.016;2022-12-18T03:27:59;15.77;;;9.80;;
14294;SDS011;7231;59.370;18.016;2022-12-18T03:30:31;18.13;;;10.53;;
14294;SDS011;7231;59.370;18.016;2022-12-18T03:33:05;16.37;;;9.27;;
14294;SDS011;7231;59.370;18.016;2022-12-18T03:35:37;16.30;;;9.63;;
14294;SDS011;7231;59.370;18.016;2022-12-18T03:38:07;16.67;;;9.80;;
14294;SDS011;7231;59.370;18.016;2022-12-18T03:40:40;18.20;;;11.23;;
14294;SDS011;7231;59.370;18.016;2022-12-18T03:43:18;17.10;;;9.93;;
14294;SDS011;7231;59.370;18.016;2022-12-18T03:45:50;16.30;;;10.13;;
14294;SDS011;7231;59.370;18.016;2022-12-18T03:48:25;14.57;;;9.43;;
14294;SDS011;7231;59.370;18.016;2022-12-18T03:50:59;13.50;;;6.90;;
14294;SDS011;7231;59.370;18.016;2022-12-18T03:53:34;15.87;;;9.60;;
14294;SDS011;7231;59.370;18.016;2022-12-18T03:56:09;14.07;;;9.37;;
14294;SDS011;7231;59.370;18.016;2022-12-18T03:58:41;14.43;;;9.77;;
14294;SDS011;7231;59.370;18.016;2022-12-18T04:01:12;14.97;;;9.67;;
14294;SDS011;7231;59.370;18.016;2022-12-18T04:03:42;15.50;;;9.67;;
14294;SDS011;7231;59.370;18.016;2022-12-18T04:06:12;11.23;;;8.13;;
14294;SDS011;7231;59.370;18.016;2022-12-18T04:08:42;14.20;;;9.27;;
14294;SDS011;7231;59.370;18.016;2022-12-18T04:11:10;14.23;;;8.93;;
14294;SDS011;7231;59.370;18.016;2022-12-18T04:13:38;16.10;;;10.47;;
14294;SDS011;7231;59.370;18.016;2022-12-18T04:16:08;10.77;;;7.53;;
14294;SDS011;7231;59.370;18.016;2022-12-18T04:18:36;13.50;;;9.00;;
14294;SDS011;7231;59.370;18.016;2022-12-18T04:21:04;18.27;;;8.77;;
14294;SDS011;7231;59.370;18.016;2022-12-18T04:23:32;16.27;;;10.13;;
14294;SDS011;7231;59.370;18.016;2022-12-18T04:26:00;13.83;;;8.90;;
14294;SDS011;7231;59.370;18.016;2022-12-18T04:28:28;12.87;;;9.23;;
14294;SDS011;7231;59.370;18.016;2022-12-18T04:30:56;12.73;;;8.70;;
14294;SDS011;7231;59.370;18.016;2022-12-18T04:33:25;14.30;;;9.33;;
14294;SDS011;7231;59.370;18.016;2022-12-18T04:35:53;12.07;;;8.17;;
14294;SDS011;7231;59.370;18.016;2022-12-18T04:38:21;16.97;;;8.83;;
14294;SDS011;7231;59.370;18.016;2022-12-18T04:40:49;13.50;;;9.00;;
14294;SDS011;7231;59.370;18.016;2022-12-18T04:43:17;11.27;;;7.73;;
14294;SDS011;7231;59.370;18.016;2022-12-18T04:45:45;14.47;;;8.07;;
14294;SDS011;7231;59.370;18.016;2022-12-18T04:48:13;13.83;;;8.83;;
14294;SDS011;7231;59.370;18.016;2022-12-18T04:50:43;12.27;;;8.13;;
14294;SDS011;7231;59.370;18.016;2022-12-18T04:53:11;12.13;;;7.93;;
14294;SDS011;7231;59.370;18.016;2022-12-18T04:55:39;13.43;;;8.97;;
14294;SDS011;7231;59.370;18.016;2022-12-18T04:58:07;12.70;;;8.07;;
14294;SDS011;7231;59.370;18.016;2022-12-18T05:00:34;11.93;;;7.67;;
14294;SDS011;7231;59.370;18.016;2022-12-18T05:03:02;15.27;;;9.40;;
14294;SDS011;7231;59.370;18.016;2022-12-18T05:05:31;14.10;;;9.90;;
14294;SDS011;7231;59.370;18.016;2022-12-18T05:08:00;15.13;;;9.40;;
14294;SDS011;7231;59.370;18.016;2022-12-18T05:10:28;17.37;;;9.83;;
14294;SDS011;7231;59.370;18.016;2022-12-18T05:13:03;15.67;;;10.10;;
14294;SDS011;7231;59.370;18.016;2022-12-18T05:15:31;15.10;;;9.93;;
14294;SDS011;7231;59.370;18.016;2022-12-18T05:18:00;14.53;;;9.43;;
14294;SDS011;7231;59.370;18.016;2022-12-18T05:20:28;13.20;;;8.40;;
14294;SDS011;7231;59.370;18.016;2022-12-18T05:22:56;12.13;;;7.80;;
14294;SDS011;7231;59.370;18.016;2022-12-18T05:25:26;14.23;;;9.40;;
14294;SDS011;7231;59.370;18.016;2022-12-18T05:27:53;16.93;;;8.90;;
14294;SDS011;7231;59.370;18.016;2022-12-18T05:30:22;12.53;;;8.23;;
14294;SDS011;7231;59.370;18.016;2022-12-18T05:32:50;14.87;;;8.73;;
14294;SDS011;7231;59.370;18.016;2022-12-18T05:35:18;13.53;;;8.10;;
14294;SDS011;7231;59.370;18.016;2022-12-18T05:37:46;12.40;;;8.50;;
14294;SDS011;7231;59.370;18.016;2022-12-18T05:40:14;13.07;;;8.27;;
14294;SDS011;7231;59.370;18.016;2022-12-18T05:42:44;11.13;;;7.30;;
14294;SDS011;7231;59.370;18.016;2022-12-18T05:45:11;8.83;;;5.93;;
14294;SDS011;7231;59.370;18.016;2022-12-18T05:47:39;10.13;;;5.23;;
14294;SDS011;7231;59.370;18.016;2022-12-18T05:50:07;14.13;;;8.77;;
14294;SDS011;7231;59.370;18.016;2022-12-18T05:52:36;13.07;;;9.13;;
14294;SDS011;7231;59.370;18.016;2022-12-18T05:55:04;14.77;;;9.13;;
14294;SDS011;7231;59.370;18.016;2022-12-18T05:57:32;14.53;;;8.90;;
14294;SDS011;7231;59.370;18.016;2022-12-18T06:00:01;12.80;;;7.60;;
14294;SDS011;7231;59.370;18.016;2022-12-18T06:02:29;11.53;;;6.50;;
14294;SDS011;7231;59.370;18.016;2022-12-18T06:04:57;13.13;;;8.17;;
14294;SDS011;7231;59.370;18.016;2022-12-18T06:07:25;12.77;;;8.47;;
14294;SDS011;7231;59.370;18.016;2022-12-18T06:09:53;13.87;;;8.40;;
14294;SDS011;7231;59.370;18.016;2022-12-18T06:12:21;14.20;;;8.33;;
14294;SDS011;7231;59.370;18.016;2022-12-18T06:14:49;16.03;;;8.20;;
14294;SDS011;7231;59.370;18.016;2022-12-18T06:17:18;13.83;;;8.10;;
14294;SDS011;7231;59.370;18.016;2022-12-18T06:19:46;12.97;;;8.03;;
14294;SDS011;7231;59.370;18.016;2022-12-18T06:22:14;13.50;;;7.97;;
14294;SDS011;7231;59.370;18.016;2022-12-18T06:24:43;13.77;;;7.50;;
14294;SDS011;7231;59.370;18.016;2022-12-18T06:27:11;14.50;;;8.33;;
14294;SDS011;7231;59.370;18.016;2022-12-18T06:29:39;10.30;;;7.40;;
14294;SDS011;7231;59.370;18.016;2022-12-18T06:32:07;14.03;;;7.80;;
14294;SDS011;7231;59.370;18.016;2022-12-18T06:34:37;12.00;;;7.60;;
14294;SDS011;7231;59.370;18.016;2022-12-18T06:37:05;15.77;;;9.20;;
14294;SDS011;7231;59.370;18.016;2022-12-18T06:39:33;13.03;;;8.20;;
14294;SDS011;7231;59.370;18.016;2022-12-18T06:42:01;14.17;;;9.00;;
14294;SDS011;7231;59.370;18.016;2022-12-18T06:44:30;13.10;;;7.33;;
14294;SDS011;7231;59.370;18.016;2022-12-18T06:46:58;13.73;;;8.30;;
14294;SDS011;7231;59.370;18.016;2022-12-18T06:49:26;11.57;;;7.17;;
14294;SDS011;7231;59.370;18.016;2022-12-18T06:51:57;15.33;;;8.70;;
14294;SDS011;7231;59.370;18.016;2022-12-18T06:54:25;14.13;;;7.57;;
14294;SDS011;7231;59.370;18.016;2022-12-18T06:56:53;13.13;;;7.07;;
14294;SDS011;7231;59.370;18.016;2022-12-18T06:59:21;11.07;;;7.10;;
14294;SDS011;7231;59.370;18.016;2022-12-18T07:01:49;13.83;;;8.20;;
14294;SDS011;7231;59.370;18.016;2022-12-18T07:04:17;12.93;;;7.97;;
14294;SDS011;7231;59.370;18.016;2022-12-18T07:06:45;9.73;;;6.53;;
14294;SDS011;7231;59.370;18.016;2022-12-18T07:09:14;12.23;;;7.03;;
14294;SDS011;7231;59.370;18.016;2022-12-18T07:11:42;16.07;;;7.00;;
14294;SDS011;7231;59.370;18.016;2022-12-18T07:14:10;10.50;;;6.43;;
14294;SDS011;7231;59.370;18.016;2022-12-18T07:16:38;13.90;;;8.03;;
14294;SDS011;7231;59.370;18.016;2022-12-18T07:19:07;12.47;;;7.60;;
14294;SDS011;7231;59.370;18.016;2022-12-18T07:21:35;12.67;;;7.60;;
14294;SDS011;7231;59.370;18.016;2022-12-18T07:24:03;15.87;;;8.93;;
14294;SDS011;7231;59.370;18.016;2022-12-18T07:26:33;14.70;;;8.57;;
14294;SDS011;7231;59.370;18.016;2022-12-18T07:29:01;11.40;;;7.83;;
14294;SDS011;7231;59.370;18.016;2022-12-18T07:31:29;13.00;;;8.30;;
14294;SDS011;7231;59.370;18.016;2022-12-18T07:33:57;14.93;;;8.63;;
14294;SDS011;7231;59.370;18.016;2022-12-18T07:36:25;15.20;;;8.83;;
14294;SDS011;7231;59.370;18.016;2022-12-18T07:38:53;16.03;;;8.07;;
14294;SDS011;7231;59.370;18.016;2022-12-18T07:41:21;13.40;;;8.00;;
14294;SDS011;7231;59.370;18.016;2022-12-18T07:43:50;12.83;;;8.27;;
14294;SDS011;7231;59.370;18.016;2022-12-18T07:46:18;16.03;;;9.43;;
14294;SDS011;7231;59.370;18.016;2022-12-18T07:48:46;14.63;;;8.33;;
14294;SDS011;7231;59.370;18.016;2022-12-18T07:51:15;14.57;;;9.77;;
14294;SDS011;7231;59.370;18.016;2022-12-18T07:53:44;15.67;;;9.13;;
14294;SDS011;7231;59.370;18.016;2022-12-18T07:56:18;13.57;;;8.47;;
14294;SDS011;7231;59.370;18.016;2022-12-18T07:58:57;11.53;;;7.57;;
14294;SDS011;7231;59.370;18.016;2022-12-18T08:01:26;13.13;;;8.67;;
14294;SDS011;7231;59.370;18.016;2022-12-18T08:03:54;15.40;;;8.70;;
14294;SDS011;7231;59.370;18.016;2022-12-18T08:06:24;14.13;;;8.87;;
14294;SDS011;7231;59.370;18.016;2022-12-18T08:08:52;12.83;;;9.03;;
14294;SDS011;7231;59.370;18.016;2022-12-18T08:11:21;14.07;;;9.20;;
14294;SDS011;7231;59.370;18.016;2022-12-18T08:13:49;13.10;;;7.50;;
14294;SDS011;7231;59.370;18.016;2022-12-18T08:16:19;14.77;;;9.27;;
14294;SDS011;7231;59.370;18.016;2022-12-18T08:18:48;12.43;;;8.43;;
14294;SDS011;7231;59.370;18.016;2022-12-18T08:21:17;15.13;;;9.00;;
14294;SDS011;7231;59.370;18.016;2022-12-18T08:23:47;13.17;;;9.20;;
14294;SDS011;7231;59.370;18.016;2022-12-18T08:26:17;13.90;;;9.80;;
14294;SDS011;7231;59.370;18.016;2022-12-18T08:28:46;15.33;;;8.77;;
14294;SDS011;7231;59.370;18.016;2022-12-18T08:31:15;14.37;;;9.17;;
14294;SDS011;7231;59.370;18.016;2022-12-18T08:33:45;16.37;;;9.37;;
14294;SDS011;7231;59.370;18.016;2022-12-18T08:36:16;15.30;;;9.13;;
14294;SDS011;7231;59.370;18.016;2022-12-18T08:38:44;13.97;;;9.30;;
14294;SDS011;7231;59.370;18.016;2022-12-18T08:41:13;14.57;;;9.33;;
14294;SDS011;7231;59.370;18.016;2022-12-18T08:43:43;13.97;;;8.53;;
14294;SDS011;7231;59.370;18.016;2022-12-18T08:46:31;15.17;;;9.50;;
14294;SDS011;7231;59.370;18.016;2022-12-18T08:49:03;12.80;;;6.93;;
14294;SDS011;7231;59.370;18.016;2022-12-18T08:51:32;14.60;;;8.83;;
14294;SDS011;7231;59.370;18.016;2022-12-18T08:54:00;15.73;;;9.77;;
14294;SDS011;7231;59.370;18.016;2022-12-18T08:56:31;14.87;;;9.17;;
14294;SDS011;7231;59.370;18.016;2022-12-18T08:59:00;12.60;;;9.10;;
14294;SDS011;7231;59.370;18.016;2022-12-18T09:01:28;13.53;;;9.27;;
14294;SDS011;7231;59.370;18.016;2022-12-18T09:03:57;14.57;;;8.80;;
14294;SDS011;7231;59.370;18.016;2022-12-18T09:06:26;13.80;;;9.47;;
14294;SDS011;7231;59.370;18.016;2022-12-18T09:08:54;14.53;;;9.40;;
14294;SDS011;7231;59.370;18.016;2022-12-18T09:11:23;13.87;;;8.73;;
14294;SDS011;7231;59.370;18.016;2022-12-18T09:13:53;14.33;;;9.50;;
14294;SDS011;7231;59.370;18.016;2022-12-18T09:16:22;11.40;;;8.07;;
14294;SDS011;7231;59.370;18.016;2022-12-18T09:18:57;11.80;;;8.17;;
14294;SDS011;7231;59.370;18.016;2022-12-18T09:21:28;15.53;;;10.23;;
14294;SDS011;7231;59.370;18.016;2022-12-18T09:24:01;13.57;;;8.43;;
14294;SDS011;7231;59.370;18.016;2022-12-18T09:26:30;14.03;;;8.47;;
14294;SDS011;7231;59.370;18.016;2022-12-18T09:28:58;13.23;;;8.30;;
14294;SDS011;7231;59.370;18.016;2022-12-18T09:31:26;13.60;;;9.70;;
14294;SDS011;7231;59.370;18.016;2022-12-18T09:33:54;17.87;;;10.63;;
14294;SDS011;7231;59.370;18.016;2022-12-18T09:36:22;14.87;;;10.20;;
14294;SDS011;7231;59.370;18.016;2022-12-18T09:38:52;14.20;;;9.57;;
14294;SDS011;7231;59.370;18.016;2022-12-18T09:41:32;14.20;;;8.30;;
14294;SDS011;7231;59.370;18.016;2022-12-18T09:44:10;15.73;;;9.53;;
14294;SDS011;7231;59.370;18.016;2022-12-18T09:46:45;14.20;;;9.47;;
14294;SDS011;7231;59.370;18.016;2022-12-18T09:49:18;14.60;;;9.40;;
14294;SDS011;7231;59.370;18.016;2022-12-18T09:51:50;10.37;;;6.67;;
14294;SDS011;7231;59.370;18.016;2022-12-18T09:54:25;18.80;;;8.00;;
14294;SDS011;7231;59.370;18.016;2022-12-18T09:56:57;13.17;;;9.10;;
14294;SDS011;7231;59.370;18.016;2022-12-18T09:59:29;14.80;;;9.77;;
14294;SDS011;7231;59.370;18.016;2022-12-18T10:02:10;13.03;;;9.13;;
14294;SDS011;7231;59.370;18.016;2022-12-18T10:04:42;12.83;;;8.27;;
14294;SDS011;7231;59.370;18.016;2022-12-18T10:07:13;11.97;;;7.40;;
14294;SDS011;7231;59.370;18.016;2022-12-18T10:09:49;16.50;;;8.40;;
14294;SDS011;7231;59.370;18.016;2022-12-18T10:12:27;13.47;;;9.53;;
14294;SDS011;7231;59.370;18.016;2022-12-18T10:15:01;13.60;;;9.63;;
14294;SDS011;7231;59.370;18.016;2022-12-18T10:17:35;14.90;;;9.07;;
14294;SDS011;7231;59.370;18.016;2022-12-18T10:20:13;12.30;;;8.10;;
14294;SDS011;7231;59.370;18.016;2022-12-18T10:22:53;10.93;;;6.00;;
14294;SDS011;7231;59.370;18.016;2022-12-18T10:25:33;13.10;;;6.77;;
14294;SDS011;7231;59.370;18.016;2022-12-18T10:28:07;12.80;;;8.60;;
14294;SDS011;7231;59.370;18.016;2022-12-18T10:30:39;15.37;;;10.10;;
14294;SDS011;7231;59.370;18.016;2022-12-18T10:33:10;13.27;;;8.20;;
14294;SDS011;7231;59.370;18.016;2022-12-18T10:35:40;11.53;;;8.23;;
14294;SDS011;7231;59.370;18.016;2022-12-18T10:38:20;13.63;;;8.17;;
14294;SDS011;7231;59.370;18.016;2022-12-18T10:40:53;11.00;;;7.27;;
14294;SDS011;7231;59.370;18.016;2022-12-18T10:43:24;16.67;;;9.97;;
14294;SDS011;7231;59.370;18.016;2022-12-18T10:46:04;14.73;;;8.53;;
14294;SDS011;7231;59.370;18.016;2022-12-18T10:48:48;13.43;;;9.23;;
14294;SDS011;7231;59.370;18.016;2022-12-18T10:51:21;15.63;;;8.10;;
14294;SDS011;7231;59.370;18.016;2022-12-18T10:53:52;13.90;;;9.13;;
14294;SDS011;7231;59.370;18.016;2022-12-18T10:56:26;14.13;;;8.80;;
14294;SDS011;7231;59.370;18.016;2022-12-18T10:58:56;16.70;;;9.20;;
14294;SDS011;7231;59.370;18.016;2022-12-18T11:01:26;12.17;;;8.40;;
14294;SDS011;7231;59.370;18.016;2022-12-18T11:03:59;14.37;;;8.90;;
14294;SDS011;7231;59.370;18.016;2022-12-18T11:06:30;16.63;;;10.30;;
14294;SDS011;7231;59.370;18.016;2022-12-18T11:08:59;20.87;;;10.33;;
14294;SDS011;7231;59.370;18.016;2022-12-18T11:11:39;15.47;;;8.67;;
14294;SDS011;7231;59.370;18.016;2022-12-18T11:14:11;14.13;;;8.80;;
14294;SDS011;7231;59.370;18.016;2022-12-18T11:16:45;15.87;;;8.97;;
14294;SDS011;7231;59.370;18.016;2022-12-18T11:19:35;13.47;;;10.10;;
14294;SDS011;7231;59.370;18.016;2022-12-18T11:22:17;16.10;;;9.53;;
14294;SDS011;7231;59.370;18.016;2022-12-18T11:24:52;14.73;;;9.27;;
14294;SDS011;7231;59.370;18.016;2022-12-18T11:27:48;13.20;;;8.00;;
14294;SDS011;7231;59.370;18.016;2022-12-18T11:30:22;11.53;;;8.10;;
14294;SDS011;7231;59.370;18.016;2022-12-18T11:32:52;10.73;;;7.27;;
14294;SDS011;7231;59.370;18.016;2022-12-18T11:35:25;12.03;;;8.20;;
14294;SDS011;7231;59.370;18.016;2022-12-18T11:38:04;12.00;;;7.87;;
14294;SDS011;7231;59.370;18.016;2022-12-18T11:40:40;11.57;;;8.63;;
14294;SDS011;7231;59.370;18.016;2022-12-18T11:43:15;12.43;;;6.63;;
14294;SDS011;7231;59.370;18.016;2022-12-18T11:45:50;13.13;;;8.37;;
14294;SDS011;7231;59.370;18.016;2022-12-18T11:48:22;13.67;;;8.37;;
14294;SDS011;7231;59.370;18.016;2022-12-18T11:50:54;10.53;;;7.23;;
14294;SDS011;7231;59.370;18.016;2022-12-18T11:53:24;8.50;;;6.30;;
14294;SDS011;7231;59.370;18.016;2022-12-18T11:55:56;9.80;;;6.50;;
14294;SDS011;7231;59.370;18.016;2022-12-18T11:58:39;11.60;;;7.57;;
14294;SDS011;7231;59.370;18.016;2022-12-18T12:01:16;10.30;;;7.80;;
14294;SDS011;7231;59.370;18.016;2022-12-18T12:04:06;14.57;;;7.13;;
14294;SDS011;7231;59.370;18.016;2022-12-18T12:06:46;9.93;;;7.00;;
14294;SDS011;7231;59.370;18.016;2022-12-18T12:09:31;12.07;;;8.10;;
14294;SDS011;7231;59.370;18.016;2022-12-18T12:12:13;10.00;;;6.50;;
14294;SDS011;7231;59.370;18.016;2022-12-18T12:14:57;12.43;;;8.00;;
14294;SDS011;7231;59.370;18.016;2022-12-18T12:17:32;15.13;;;8.13;;
14294;SDS011;7231;59.370;18.016;2022-12-18T12:20:09;12.73;;;8.07;;
14294;SDS011;7231;59.370;18.016;2022-12-18T12:22:45;13.07;;;7.73;;
14294;SDS011;7231;59.370;18.016;2022-12-18T12:25:20;13.67;;;8.20;;
14294;SDS011;7231;59.370;18.016;2022-12-18T12:27:57;15.30;;;8.60;;
14294;SDS011;7231;59.370;18.016;2022-12-18T12:30:38;11.57;;;7.33;;
14294;SDS011;7231;59.370;18.016;2022-12-18T12:33:20;11.57;;;7.60;;
14294;SDS011;7231;59.370;18.016;2022-12-18T12:35:59;12.93;;;7.27;;
14294;SDS011;7231;59.370;18.016;2022-12-18T12:38:36;7.87;;;5.10;;
14294;SDS011;7231;59.370;18.016;2022-12-18T12:41:18;10.67;;;6.73;;
14294;SDS011;7231;59.370;18.016;2022-12-18T12:44:08;9.50;;;6.17;;
14294;SDS011;7231;59.370;18.016;2022-12-18T12:46:44;13.20;;;7.43;;
14294;SDS011;7231;59.370;18.016;2022-12-18T12:49:14;11.73;;;5.87;;
14294;SDS011;7231;59.370;18.016;2022-12-18T12:51:50;11.83;;;7.00;;
14294;SDS011;7231;59.370;18.016;2022-12-18T12:54:24;11.13;;;7.13;;
14294;SDS011;7231;59.370;18.016;2022-12-18T12:56:54;11.40;;;7.17;;
14294;SDS011;7231;59.370;18.016;2022-12-18T12:59:28;12.27;;;8.13;;
14294;SDS011;7231;59.370;18.016;2022-12-18T13:02:04;11.00;;;5.90;;
14294;SDS011;7231;59.370;18.016;2022-12-18T13:04:44;8.47;;;5.27;;
14294;SDS011;7231;59.370;18.016;2022-12-18T13:07:20;11.63;;;8.00;;
14294;SDS011;7231;59.370;18.016;2022-12-18T13:10:19;11.17;;;6.23;;
14294;SDS011;7231;59.370;18.016;2022-12-18T13:12:55;11.83;;;7.10;;
14294;SDS011;7231;59.370;18.016;2022-12-18T13:15:25;10.97;;;6.93;;
14294;SDS011;7231;59.370;18.016;2022-12-18T13:18:09;14.23;;;6.77;;
14294;SDS011;7231;59.370;18.016;2022-12-18T13:20:41;10.23;;;6.70;;
14294;SDS011;7231;59.370;18.016;2022-12-18T13:23:19;13.03;;;7.40;;
14294;SDS011;7231;59.370;18.016;2022-12-18T13:25:58;8.50;;;5.23;;
14294;SDS011;7231;59.370;18.016;2022-12-18T13:34:32;12.23;;;6.37;;
14294;SDS011;7231;59.370;18.016;2022-12-18T13:43:28;9.77;;;5.33;;
14294;SDS011;7231;59.370;18.016;2022-12-18T13:45:59;9.87;;;6.00;;
14294;SDS011;7231;59.370;18.016;2022-12-18T13:48:30;9.33;;;4.73;;
14294;SDS011;7231;59.370;18.016;2022-12-18T13:51:02;8.37;;;5.63;;
14294;SDS011;7231;59.370;18.016;2022-12-18T13:53:34;8.23;;;5.37;;
14294;SDS011;7231;59.370;18.016;2022-12-18T13:56:06;7.03;;;4.67;;
14294;SDS011;7231;59.370;18.016;2022-12-18T13:58:34;11.40;;;5.30;;
14294;SDS011;7231;59.370;18.016;2022-12-18T14:01:02;10.23;;;5.00;;
14294;SDS011;7231;59.370;18.016;2022-12-18T14:03:43;7.83;;;4.67;;
14294;SDS011;7231;59.370;18.016;2022-12-18T14:06:14;8.07;;;4.93;;
14294;SDS011;7231;59.370;18.016;2022-12-18T14:08:44;12.55;;;5.47;;
14294;SDS011;7231;59.370;18.016;2022-12-18T14:11:18;11.90;;;5.32;;
14294;SDS011;7231;59.370;18.016;2022-12-18T14:13:52;7.50;;;4.40;;
14294;SDS011;7231;59.370;18.016;2022-12-18T14:16:20;9.30;;;4.50;;
14294;SDS011;7231;59.370;18.016;2022-12-18T14:18:50;8.07;;;4.77;;
14294;SDS011;7231;59.370;18.016;2022-12-18T14:21:42;8.68;;;4.13;;
14294;SDS011;7231;59.370;18.016;2022-12-18T14:24:14;7.57;;;4.10;;
14294;SDS011;7231;59.370;18.016;2022-12-18T14:26:45;6.47;;;4.05;;
14294;SDS011;7231;59.370;18.016;2022-12-18T14:29:22;8.67;;;3.57;;
14294;SDS011;7231;59.370;18.016;2022-12-18T14:32:05;7.57;;;4.43;;
14294;SDS011;7231;59.370;18.016;2022-12-18T14:34:43;8.98;;;4.43;;
14294;SDS011;7231;59.370;18.016;2022-12-18T14:37:13;6.97;;;4.27;;
14294;SDS011;7231;59.370;18.016;2022-12-18T14:39:51;9.50;;;3.78;;
14294;SDS011;7231;59.370;18.016;2022-12-18T14:42:24;6.40;;;4.37;;
14294;SDS011;7231;59.370;18.016;2022-12-18T14:47:56;6.40;;;3.60;;
14294;SDS011;7231;59.370;18.016;2022-12-18T14:50:24;6.20;;;3.23;;
14294;SDS011;7231;59.370;18.016;2022-12-18T14:52:53;6.73;;;3.57;;
14294;SDS011;7231;59.370;18.016;2022-12-18T14:55:22;7.37;;;4.27;;
14294;SDS011;7231;59.370;18.016;2022-12-18T14:57:50;7.03;;;3.80;;
14294;SDS011;7231;59.370;18.016;2022-12-18T15:00:20;9.23;;;3.97;;
14294;SDS011;7231;59.370;18.016;2022-12-18T15:02:50;6.03;;;4.23;;
14294;SDS011;7231;59.370;18.016;2022-12-18T15:05:21;6.00;;;3.33;;
14294;SDS011;7231;59.370;18.016;2022-12-18T15:07:56;10.67;;;4.50;;
14294;SDS011;7231;59.370;18.016;2022-12-18T15:10:25;7.43;;;4.40;;
14294;SDS011;7231;59.370;18.016;2022-12-18T15:13:07;7.20;;;4.40;;
14294;SDS011;7231;59.370;18.016;2022-12-18T15:15:46;7.80;;;3.60;;